sensor_id;sensor_type;location;lat;lon;timestamp;P1;durP1;ratioP1;P2;durP2;ratioP2
54599;SDS011;40500;51.084;16.958;2023-02-13T00:02:11;13.40;;;7.70;;
54599;SDS011;40500;51.084;16.958;2023-02-13T00:04:42;13.10;;;7.30;;
54599;SDS011;40500;51.084;16.958;2023-02-13T00:07:13;18.60;;;8.00;;
54599;SDS011;40500;51.084;16.958;2023-02-13T00:09:44;11.80;;;7.50;;
54599;SDS011;40500;51.084;16.958;2023-02-13T00:12:17;16.00;;;8.20;;
54599;SDS011;40500;51.084;16.958;2023-02-13T00:14:48;12.00;;;6.80;;
54599;SDS011;40500;51.084;16.958;2023-02-13T00:17:19;11.70;;;7.20;;
54599;SDS011;40500;51.084;16.958;2023-02-13T00:19:50;12.40;;;6.70;;
54599;SDS011;40500;51.084;16.958;2023-02-13T00:22:21;17.10;;;7.70;;
54599;SDS011;40500;51.084;16.958;2023-02-13T00:24:51;11.90;;;6.90;;
54599;SDS011;40500;51.084;16.958;2023-02-13T00:27:23;10.30;;;5.60;;
54599;SDS011;40500;51.084;16.958;2023-02-13T00:29:54;11.90;;;6.30;;
54599;SDS011;40500;51.084;16.958;2023-02-13T00:32:25;11.70;;;5.50;;
54599;SDS011;40500;51.084;16.958;2023-02-13T00:34:55;11.10;;;6.20;;
54599;SDS011;40500;51.084;16.958;2023-02-13T00:37:27;10.10;;;5.30;;
54599;SDS011;40500;51.084;16.958;2023-02-13T00:39:57;8.30;;;5.90;;
54599;SDS011;40500;51.084;16.958;2023-02-13T00:42:46;12.10;;;5.50;;
54599;SDS011;40500;51.084;16.958;2023-02-13T00:45:16;11.50;;;6.40;;
54599;SDS011;40500;51.084;16.958;2023-02-13T00:47:47;9.70;;;6.60;;
54599;SDS011;40500;51.084;16.958;2023-02-13T00:50:20;11.40;;;6.10;;
54599;SDS011;40500;51.084;16.958;2023-02-13T00:52:53;12.10;;;5.90;;
54599;SDS011;40500;51.084;16.958;2023-02-13T00:55:24;12.40;;;6.90;;
54599;SDS011;40500;51.084;16.958;2023-02-13T00:57:55;10.80;;;5.60;;
54599;SDS011;40500;51.084;16.958;2023-02-13T01:00:25;11.70;;;6.20;;
54599;SDS011;40500;51.084;16.958;2023-02-13T01:03:00;10.20;;;6.00;;
54599;SDS011;40500;51.084;16.958;2023-02-13T01:05:34;11.50;;;6.60;;
54599;SDS011;40500;51.084;16.958;2023-02-13T01:08:05;10.90;;;6.00;;
54599;SDS011;40500;51.084;16.958;2023-02-13T01:10:37;11.70;;;6.50;;
54599;SDS011;40500;51.084;16.958;2023-02-13T01:13:09;8.40;;;5.40;;
54599;SDS011;40500;51.084;16.958;2023-02-13T01:15:41;11.20;;;5.80;;
54599;SDS011;40500;51.084;16.958;2023-02-13T01:18:16;12.70;;;6.20;;
54599;SDS011;40500;51.084;16.958;2023-02-13T01:20:55;9.10;;;5.40;;
54599;SDS011;40500;51.084;16.958;2023-02-13T01:23:31;12.70;;;6.70;;
54599;SDS011;40500;51.084;16.958;2023-02-13T01:26:07;13.70;;;6.80;;
54599;SDS011;40500;51.084;16.958;2023-02-13T01:28:41;14.10;;;6.10;;
54599;SDS011;40500;51.084;16.958;2023-02-13T01:31:12;11.90;;;5.40;;
54599;SDS011;40500;51.084;16.958;2023-02-13T01:33:51;10.60;;;5.80;;
54599;SDS011;40500;51.084;16.958;2023-02-13T01:36:24;16.50;;;6.40;;
54599;SDS011;40500;51.084;16.958;2023-02-13T01:38:55;8.90;;;5.80;;
54599;SDS011;40500;51.084;16.958;2023-02-13T01:41:26;11.20;;;5.50;;
54599;SDS011;40500;51.084;16.958;2023-02-13T01:43:58;11.60;;;5.70;;
54599;SDS011;40500;51.084;16.958;2023-02-13T01:46:30;9.00;;;5.90;;
54599;SDS011;40500;51.084;16.958;2023-02-13T01:49:08;12.50;;;5.90;;
54599;SDS011;40500;51.084;16.958;2023-02-13T01:51:41;10.60;;;5.10;;
54599;SDS011;40500;51.084;16.958;2023-02-13T01:54:13;8.90;;;4.40;;
54599;SDS011;40500;51.084;16.958;2023-02-13T01:56:48;9.70;;;4.30;;
54599;SDS011;40500;51.084;16.958;2023-02-13T01:59:24;7.90;;;5.10;;
54599;SDS011;40500;51.084;16.958;2023-02-13T02:02:03;8.30;;;4.50;;
54599;SDS011;40500;51.084;16.958;2023-02-13T02:04:35;6.40;;;4.10;;
54599;SDS011;40500;51.084;16.958;2023-02-13T02:07:16;9.00;;;5.00;;
54599;SDS011;40500;51.084;16.958;2023-02-13T02:09:49;9.80;;;5.60;;
54599;SDS011;40500;51.084;16.958;2023-02-13T02:12:24;10.40;;;5.50;;
54599;SDS011;40500;51.084;16.958;2023-02-13T02:14:59;10.10;;;5.00;;
54599;SDS011;40500;51.084;16.958;2023-02-13T02:17:32;8.40;;;5.20;;
54599;SDS011;40500;51.084;16.958;2023-02-13T02:20:06;10.50;;;5.00;;
54599;SDS011;40500;51.084;16.958;2023-02-13T02:23:02;12.10;;;4.80;;
54599;SDS011;40500;51.084;16.958;2023-02-13T02:25:58;9.10;;;4.90;;
54599;SDS011;40500;51.084;16.958;2023-02-13T02:28:55;10.60;;;4.60;;
54599;SDS011;40500;51.084;16.958;2023-02-13T02:31:53;8.90;;;4.70;;
54599;SDS011;40500;51.084;16.958;2023-02-13T02:34:41;8.50;;;5.30;;
54599;SDS011;40500;51.084;16.958;2023-02-13T02:37:27;12.60;;;5.60;;
54599;SDS011;40500;51.084;16.958;2023-02-13T02:40:16;14.40;;;5.60;;
54599;SDS011;40500;51.084;16.958;2023-02-13T02:42:59;13.70;;;5.40;;
54599;SDS011;40500;51.084;16.958;2023-02-13T02:45:45;11.60;;;5.70;;
54599;SDS011;40500;51.084;16.958;2023-02-13T02:48:24;9.20;;;5.20;;
54599;SDS011;40500;51.084;16.958;2023-02-13T02:51:22;14.40;;;5.80;;
54599;SDS011;40500;51.084;16.958;2023-02-13T02:54:02;10.40;;;5.30;;
54599;SDS011;40500;51.084;16.958;2023-02-13T02:56:59;6.90;;;4.40;;
54599;SDS011;40500;51.084;16.958;2023-02-13T02:59:37;9.40;;;4.80;;
54599;SDS011;40500;51.084;16.958;2023-02-13T03:02:27;11.20;;;5.60;;
54599;SDS011;40500;51.084;16.958;2023-02-13T03:05:16;9.90;;;5.20;;
54599;SDS011;40500;51.084;16.958;2023-02-13T03:08:07;10.10;;;5.30;;
54599;SDS011;40500;51.084;16.958;2023-02-13T03:10:41;9.60;;;5.20;;
54599;SDS011;40500;51.084;16.958;2023-02-13T03:13:30;12.00;;;5.30;;
54599;SDS011;40500;51.084;16.958;2023-02-13T03:16:09;9.30;;;4.90;;
54599;SDS011;40500;51.084;16.958;2023-02-13T03:19:02;10.70;;;5.10;;
54599;SDS011;40500;51.084;16.958;2023-02-13T03:21:52;7.90;;;5.20;;
54599;SDS011;40500;51.084;16.958;2023-02-13T03:24:46;9.20;;;4.30;;
54599;SDS011;40500;51.084;16.958;2023-02-13T03:27:30;8.90;;;4.50;;
54599;SDS011;40500;51.084;16.958;2023-02-13T03:30:29;9.30;;;5.80;;
54599;SDS011;40500;51.084;16.958;2023-02-13T03:33:13;7.40;;;5.10;;
54599;SDS011;40500;51.084;16.958;2023-02-13T03:35:55;8.70;;;4.90;;
54599;SDS011;40500;51.084;16.958;2023-02-13T03:38:51;9.00;;;5.00;;
54599;SDS011;40500;51.084;16.958;2023-02-13T03:41:31;7.50;;;4.60;;
54599;SDS011;40500;51.084;16.958;2023-02-13T03:44:10;9.40;;;4.90;;
54599;SDS011;40500;51.084;16.958;2023-02-13T03:46:45;10.90;;;6.30;;
54599;SDS011;40500;51.084;16.958;2023-02-13T03:49:20;11.20;;;5.80;;
54599;SDS011;40500;51.084;16.958;2023-02-13T03:52:12;9.20;;;5.40;;
54599;SDS011;40500;51.084;16.958;2023-02-13T03:54:48;11.70;;;5.10;;
54599;SDS011;40500;51.084;16.958;2023-02-13T03:57:40;7.90;;;4.30;;
54599;SDS011;40500;51.084;16.958;2023-02-13T04:00:33;6.10;;;4.40;;
54599;SDS011;40500;51.084;16.958;2023-02-13T04:03:09;8.40;;;5.60;;
54599;SDS011;40500;51.084;16.958;2023-02-13T04:31:03;9.90;;;6.00;;
54599;SDS011;40500;51.084;16.958;2023-02-13T04:59:07;9.10;;;6.20;;
54599;SDS011;40500;51.084;16.958;2023-02-13T05:02:05;9.50;;;5.60;;
54599;SDS011;40500;51.084;16.958;2023-02-13T06:59:33;8.90;;;5.90;;
54599;SDS011;40500;51.084;16.958;2023-02-13T07:02:02;6.00;;;4.70;;
54599;SDS011;40500;51.084;16.958;2023-02-13T07:04:29;7.70;;;5.30;;
54599;SDS011;40500;51.084;16.958;2023-02-13T07:07:00;8.50;;;5.00;;
54599;SDS011;40500;51.084;16.958;2023-02-13T07:09:29;8.20;;;5.40;;
54599;SDS011;40500;51.084;16.958;2023-02-13T07:11:57;10.00;;;5.50;;
54599;SDS011;40500;51.084;16.958;2023-02-13T07:14:27;9.30;;;5.20;;
54599;SDS011;40500;51.084;16.958;2023-02-13T07:16:55;9.10;;;5.30;;
54599;SDS011;40500;51.084;16.958;2023-02-13T07:19:25;10.60;;;5.60;;
54599;SDS011;40500;51.084;16.958;2023-02-13T07:21:53;9.90;;;5.90;;
54599;SDS011;40500;51.084;16.958;2023-02-13T07:24:21;11.20;;;5.90;;
54599;SDS011;40500;51.084;16.958;2023-02-13T07:26:51;9.80;;;5.50;;
54599;SDS011;40500;51.084;16.958;2023-02-13T07:29:19;8.50;;;5.60;;
54599;SDS011;40500;51.084;16.958;2023-02-13T07:31:49;7.70;;;4.80;;
54599;SDS011;40500;51.084;16.958;2023-02-13T07:34:16;10.00;;;5.60;;
54599;SDS011;40500;51.084;16.958;2023-02-13T07:36:44;9.00;;;5.40;;
54599;SDS011;40500;51.084;16.958;2023-02-13T07:39:11;8.90;;;6.00;;
54599;SDS011;40500;51.084;16.958;2023-02-13T07:41:43;12.90;;;5.50;;
54599;SDS011;40500;51.084;16.958;2023-02-13T07:44:15;10.00;;;5.40;;
54599;SDS011;40500;51.084;16.958;2023-02-13T07:46:51;10.90;;;6.20;;
54599;SDS011;40500;51.084;16.958;2023-02-13T07:49:26;10.00;;;6.60;;
54599;SDS011;40500;51.084;16.958;2023-02-13T07:52:02;11.20;;;6.80;;
54599;SDS011;40500;51.084;16.958;2023-02-13T07:54:30;10.90;;;6.70;;
54599;SDS011;40500;51.084;16.958;2023-02-13T07:56:59;10.40;;;6.30;;
54599;SDS011;40500;51.084;16.958;2023-02-13T07:59:28;11.60;;;6.50;;
54599;SDS011;40500;51.084;16.958;2023-02-13T08:01:57;10.90;;;6.60;;
54599;SDS011;40500;51.084;16.958;2023-02-13T08:04:25;12.50;;;6.30;;
54599;SDS011;40500;51.084;16.958;2023-02-13T08:06:54;10.40;;;6.90;;
54599;SDS011;40500;51.084;16.958;2023-02-13T08:09:21;12.10;;;6.50;;
54599;SDS011;40500;51.084;16.958;2023-02-13T08:12:08;11.00;;;6.10;;
54599;SDS011;40500;51.084;16.958;2023-02-13T08:14:37;12.70;;;6.40;;
54599;SDS011;40500;51.084;16.958;2023-02-13T08:17:08;15.40;;;7.40;;
54599;SDS011;40500;51.084;16.958;2023-02-13T08:19:39;12.80;;;7.50;;
54599;SDS011;40500;51.084;16.958;2023-02-13T08:22:07;18.10;;;8.70;;
54599;SDS011;40500;51.084;16.958;2023-02-13T08:24:37;14.20;;;7.80;;
54599;SDS011;40500;51.084;16.958;2023-02-13T08:27:18;20.00;;;10.10;;
54599;SDS011;40500;51.084;16.958;2023-02-13T08:29:47;23.80;;;9.80;;
54599;SDS011;40500;51.084;16.958;2023-02-13T08:32:16;21.10;;;9.80;;
54599;SDS011;40500;51.084;16.958;2023-02-13T08:34:45;24.00;;;11.30;;
54599;SDS011;40500;51.084;16.958;2023-02-13T08:37:16;27.00;;;11.80;;
54599;SDS011;40500;51.084;16.958;2023-02-13T08:39:44;23.80;;;11.70;;
54599;SDS011;40500;51.084;16.958;2023-02-13T08:42:12;28.40;;;12.40;;
54599;SDS011;40500;51.084;16.958;2023-02-13T08:44:42;25.60;;;11.60;;
54599;SDS011;40500;51.084;16.958;2023-02-13T08:47:10;23.20;;;10.50;;
54599;SDS011;40500;51.084;16.958;2023-02-13T08:49:38;29.70;;;12.30;;
54599;SDS011;40500;51.084;16.958;2023-02-13T08:52:15;26.90;;;12.40;;
54599;SDS011;40500;51.084;16.958;2023-02-13T08:54:42;30.10;;;12.90;;
54599;SDS011;40500;51.084;16.958;2023-02-13T08:57:10;27.50;;;11.80;;
54599;SDS011;40500;51.084;16.958;2023-02-13T08:59:38;29.10;;;11.90;;
54599;SDS011;40500;51.084;16.958;2023-02-13T09:02:07;22.40;;;10.50;;
54599;SDS011;40500;51.084;16.958;2023-02-13T09:04:36;25.80;;;11.90;;
54599;SDS011;40500;51.084;16.958;2023-02-13T09:07:05;19.70;;;10.10;;
54599;SDS011;40500;51.084;16.958;2023-02-13T09:09:33;25.30;;;10.60;;
54599;SDS011;40500;51.084;16.958;2023-02-13T09:12:00;21.40;;;9.20;;
54599;SDS011;40500;51.084;16.958;2023-02-13T09:14:28;24.20;;;10.80;;
54599;SDS011;40500;51.084;16.958;2023-02-13T09:16:56;22.80;;;10.20;;
54599;SDS011;40500;51.084;16.958;2023-02-13T09:19:23;23.70;;;10.60;;
54599;SDS011;40500;51.084;16.958;2023-02-13T09:21:51;22.60;;;10.80;;
54599;SDS011;40500;51.084;16.958;2023-02-13T09:24:19;17.30;;;7.90;;
54599;SDS011;40500;51.084;16.958;2023-02-13T09:26:48;11.60;;;5.40;;
54599;SDS011;40500;51.084;16.958;2023-02-13T09:29:15;6.60;;;3.70;;
54599;SDS011;40500;51.084;16.958;2023-02-13T09:31:43;4.60;;;2.20;;
54599;SDS011;40500;51.084;16.958;2023-02-13T09:34:11;3.80;;;2.40;;
54599;SDS011;40500;51.084;16.958;2023-02-13T09:36:40;2.70;;;2.00;;
54599;SDS011;40500;51.084;16.958;2023-02-13T09:39:08;2.80;;;2.10;;
54599;SDS011;40500;51.084;16.958;2023-02-13T09:41:38;3.10;;;2.10;;
54599;SDS011;40500;51.084;16.958;2023-02-13T09:44:11;3.00;;;2.40;;
54599;SDS011;40500;51.084;16.958;2023-02-13T09:46:57;2.60;;;1.90;;
54599;SDS011;40500;51.084;16.958;2023-02-13T09:49:25;2.50;;;2.00;;
54599;SDS011;40500;51.084;16.958;2023-02-13T09:51:56;3.00;;;2.00;;
54599;SDS011;40500;51.084;16.958;2023-02-13T09:54:25;2.50;;;1.60;;
54599;SDS011;40500;51.084;16.958;2023-02-13T09:56:58;2.60;;;2.30;;
54599;SDS011;40500;51.084;16.958;2023-02-13T09:59:36;2.40;;;2.20;;
54599;SDS011;40500;51.084;16.958;2023-02-13T10:02:19;3.60;;;2.10;;
54599;SDS011;40500;51.084;16.958;2023-02-13T10:05:02;3.90;;;2.30;;
54599;SDS011;40500;51.084;16.958;2023-02-13T10:07:41;6.60;;;2.30;;
54599;SDS011;40500;51.084;16.958;2023-02-13T10:10:17;3.30;;;1.90;;
54599;SDS011;40500;51.084;16.958;2023-02-13T10:12:55;3.80;;;2.20;;
54599;SDS011;40500;51.084;16.958;2023-02-13T10:15:40;2.40;;;2.00;;
54599;SDS011;40500;51.084;16.958;2023-02-13T10:18:14;5.20;;;2.80;;
54599;SDS011;40500;51.084;16.958;2023-02-13T10:20:47;3.20;;;2.20;;
54599;SDS011;40500;51.084;16.958;2023-02-13T10:23:20;4.50;;;2.80;;
54599;SDS011;40500;51.084;16.958;2023-02-13T10:25:53;3.00;;;2.40;;
54599;SDS011;40500;51.084;16.958;2023-02-13T10:28:29;4.40;;;2.60;;
54599;SDS011;40500;51.084;16.958;2023-02-13T10:31:03;3.70;;;2.30;;
54599;SDS011;40500;51.084;16.958;2023-02-13T10:33:35;3.80;;;2.10;;
54599;SDS011;40500;51.084;16.958;2023-02-13T10:36:15;2.20;;;2.00;;
54599;SDS011;40500;51.084;16.958;2023-02-13T10:38:49;2.40;;;1.80;;
54599;SDS011;40500;51.084;16.958;2023-02-13T10:41:23;2.50;;;1.80;;
54599;SDS011;40500;51.084;16.958;2023-02-13T10:44:09;3.90;;;2.50;;
54599;SDS011;40500;51.084;16.958;2023-02-13T10:46:53;2.60;;;1.90;;
54599;SDS011;40500;51.084;16.958;2023-02-13T10:49:33;2.90;;;2.10;;
54599;SDS011;40500;51.084;16.958;2023-02-13T10:52:16;3.80;;;2.20;;
54599;SDS011;40500;51.084;16.958;2023-02-13T10:54:55;3.90;;;2.20;;
54599;SDS011;40500;51.084;16.958;2023-02-13T10:57:37;2.60;;;2.00;;
54599;SDS011;40500;51.084;16.958;2023-02-13T11:00:23;3.30;;;2.20;;
54599;SDS011;40500;51.084;16.958;2023-02-13T11:02:57;3.00;;;2.50;;
54599;SDS011;40500;51.084;16.958;2023-02-13T11:05:30;2.60;;;2.00;;
54599;SDS011;40500;51.084;16.958;2023-02-13T11:07:58;3.60;;;2.20;;
54599;SDS011;40500;51.084;16.958;2023-02-13T11:10:27;2.30;;;1.90;;
54599;SDS011;40500;51.084;16.958;2023-02-13T11:12:55;2.30;;;1.80;;
54599;SDS011;40500;51.084;16.958;2023-02-13T11:15:25;3.40;;;2.20;;
54599;SDS011;40500;51.084;16.958;2023-02-13T11:17:54;3.10;;;2.50;;
54599;SDS011;40500;51.084;16.958;2023-02-13T11:20:30;3.20;;;2.30;;
54599;SDS011;40500;51.084;16.958;2023-02-13T11:25:55;5.40;;;2.70;;
54599;SDS011;40500;51.084;16.958;2023-02-13T11:28:25;4.70;;;2.40;;
54599;SDS011;40500;51.084;16.958;2023-02-13T11:31:07;5.90;;;3.10;;
54599;SDS011;40500;51.084;16.958;2023-02-13T11:33:51;4.50;;;3.00;;
54599;SDS011;40500;51.084;16.958;2023-02-13T11:36:23;4.00;;;2.50;;
54599;SDS011;40500;51.084;16.958;2023-02-13T11:39:00;4.10;;;2.70;;
54599;SDS011;40500;51.084;16.958;2023-02-13T11:41:35;4.80;;;2.90;;
54599;SDS011;40500;51.084;16.958;2023-02-13T11:44:16;3.60;;;2.40;;
54599;SDS011;40500;51.084;16.958;2023-02-13T11:46:50;3.40;;;2.70;;
54599;SDS011;40500;51.084;16.958;2023-02-13T11:49:20;5.30;;;2.70;;
54599;SDS011;40500;51.084;16.958;2023-02-13T11:51:49;7.50;;;3.00;;
54599;SDS011;40500;51.084;16.958;2023-02-13T11:54:24;4.00;;;3.00;;
54599;SDS011;40500;51.084;16.958;2023-02-13T11:56:56;6.10;;;2.30;;
54599;SDS011;40500;51.084;16.958;2023-02-13T11:59:38;4.30;;;2.50;;
54599;SDS011;40500;51.084;16.958;2023-02-13T12:02:16;3.40;;;2.50;;
54599;SDS011;40500;51.084;16.958;2023-02-13T12:07:56;2.90;;;2.40;;
54599;SDS011;40500;51.084;16.958;2023-02-13T12:10:29;3.40;;;2.80;;
54599;SDS011;40500;51.084;16.958;2023-02-13T12:13:19;3.40;;;2.50;;
54599;SDS011;40500;51.084;16.958;2023-02-13T12:16:34;2.50;;;2.30;;
54599;SDS011;40500;51.084;16.958;2023-02-13T12:22:59;3.10;;;2.40;;
54599;SDS011;40500;51.084;16.958;2023-02-13T12:25:41;4.20;;;3.20;;
54599;SDS011;40500;51.084;16.958;2023-02-13T12:28:21;3.60;;;2.70;;
54599;SDS011;40500;51.084;16.958;2023-02-13T12:33:59;3.90;;;3.00;;
54599;SDS011;40500;51.084;16.958;2023-02-13T12:36:47;4.20;;;3.30;;
54599;SDS011;40500;51.084;16.958;2023-02-13T12:39:29;4.80;;;3.40;;
54599;SDS011;40500;51.084;16.958;2023-02-13T12:42:15;4.60;;;3.60;;
54599;SDS011;40500;51.084;16.958;2023-02-13T12:45:07;4.80;;;3.20;;
54599;SDS011;40500;51.084;16.958;2023-02-13T12:47:44;6.90;;;3.80;;
54599;SDS011;40500;51.084;16.958;2023-02-13T12:50:29;5.60;;;3.10;;
54599;SDS011;40500;51.084;16.958;2023-02-13T12:53:07;5.40;;;3.80;;
54599;SDS011;40500;51.084;16.958;2023-02-13T12:55:50;4.70;;;3.30;;
54599;SDS011;40500;51.084;16.958;2023-02-13T12:58:51;5.60;;;3.80;;
54599;SDS011;40500;51.084;16.958;2023-02-13T13:01:34;5.10;;;3.20;;
54599;SDS011;40500;51.084;16.958;2023-02-13T13:04:15;3.90;;;3.40;;
54599;SDS011;40500;51.084;16.958;2023-02-13T13:06:52;3.30;;;2.90;;
54599;SDS011;40500;51.084;16.958;2023-02-13T13:09:37;4.80;;;2.80;;
54599;SDS011;40500;51.084;16.958;2023-02-13T13:12:35;3.20;;;2.40;;
54599;SDS011;40500;51.084;16.958;2023-02-13T13:15:13;2.50;;;2.30;;
54599;SDS011;40500;51.084;16.958;2023-02-13T13:17:58;2.70;;;2.10;;
54599;SDS011;40500;51.084;16.958;2023-02-13T13:20:36;2.80;;;1.90;;
54599;SDS011;40500;51.084;16.958;2023-02-13T13:23:19;3.30;;;1.50;;
54599;SDS011;40500;51.084;16.958;2023-02-13T13:25:52;1.90;;;1.70;;
54599;SDS011;40500;51.084;16.958;2023-02-13T13:28:33;1.80;;;1.70;;
54599;SDS011;40500;51.084;16.958;2023-02-13T13:31:03;1.60;;;1.50;;
54599;SDS011;40500;51.084;16.958;2023-02-13T13:33:33;1.70;;;1.50;;
54599;SDS011;40500;51.084;16.958;2023-02-13T13:36:08;1.40;;;1.20;;
54599;SDS011;40500;51.084;16.958;2023-02-13T13:38:44;1.70;;;1.40;;
54599;SDS011;40500;51.084;16.958;2023-02-13T13:41:23;1.90;;;1.10;;
54599;SDS011;40500;51.084;16.958;2023-02-13T13:43:59;3.20;;;1.80;;
54599;SDS011;40500;51.084;16.958;2023-02-13T13:49:18;1.70;;;1.60;;
54599;SDS011;40500;51.084;16.958;2023-02-13T13:52:08;2.70;;;1.60;;
54599;SDS011;40500;51.084;16.958;2023-02-13T13:54:46;2.60;;;1.60;;
54599;SDS011;40500;51.084;16.958;2023-02-13T13:57:16;2.40;;;1.50;;
54599;SDS011;40500;51.084;16.958;2023-02-13T13:59:56;1.80;;;1.70;;
54599;SDS011;40500;51.084;16.958;2023-02-13T14:02:42;2.00;;;1.70;;
54599;SDS011;40500;51.084;16.958;2023-02-13T14:05:23;1.70;;;1.60;;
54599;SDS011;40500;51.084;16.958;2023-02-13T14:07:54;3.10;;;1.80;;
54599;SDS011;40500;51.084;16.958;2023-02-13T14:13:29;2.60;;;1.70;;
54599;SDS011;40500;51.084;16.958;2023-02-13T14:15:58;2.20;;;2.00;;
54599;SDS011;40500;51.084;16.958;2023-02-13T14:18:28;3.50;;;1.80;;
54599;SDS011;40500;51.084;16.958;2023-02-13T14:20:57;2.40;;;1.70;;
54599;SDS011;40500;51.084;16.958;2023-02-13T14:23:31;2.70;;;1.80;;
54599;SDS011;40500;51.084;16.958;2023-02-13T14:29:20;2.50;;;1.60;;
54599;SDS011;40500;51.084;16.958;2023-02-13T14:34:52;2.40;;;1.90;;
54599;SDS011;40500;51.084;16.958;2023-02-13T14:37:25;2.70;;;1.70;;
54599;SDS011;40500;51.084;16.958;2023-02-13T14:40:10;2.50;;;1.70;;
54599;SDS011;40500;51.084;16.958;2023-02-13T14:45:24;2.60;;;1.80;;
54599;SDS011;40500;51.084;16.958;2023-02-13T14:47:55;2.30;;;1.80;;
54599;SDS011;40500;51.084;16.958;2023-02-13T14:50:29;2.00;;;1.30;;
54599;SDS011;40500;51.084;16.958;2023-02-13T14:53:05;3.50;;;2.40;;
54599;SDS011;40500;51.084;16.958;2023-02-13T14:55:44;2.90;;;2.60;;
54599;SDS011;40500;51.084;16.958;2023-02-13T14:58:15;3.20;;;2.40;;
54599;SDS011;40500;51.084;16.958;2023-02-13T15:00:50;4.30;;;3.00;;
54599;SDS011;40500;51.084;16.958;2023-02-13T15:03:26;6.70;;;3.80;;
54599;SDS011;40500;51.084;16.958;2023-02-13T15:06:00;6.40;;;3.70;;
54599;SDS011;40500;51.084;16.958;2023-02-13T15:08:33;6.10;;;4.00;;
54599;SDS011;40500;51.084;16.958;2023-02-13T15:11:03;5.90;;;3.70;;
54599;SDS011;40500;51.084;16.958;2023-02-13T15:13:51;5.60;;;3.60;;
54599;SDS011;40500;51.084;16.958;2023-02-13T15:16:19;4.80;;;3.20;;
54599;SDS011;40500;51.084;16.958;2023-02-13T15:18:48;4.10;;;3.20;;
54599;SDS011;40500;51.084;16.958;2023-02-13T15:21:18;4.90;;;3.00;;
54599;SDS011;40500;51.084;16.958;2023-02-13T15:23:51;4.20;;;3.10;;
54599;SDS011;40500;51.084;16.958;2023-02-13T15:26:21;5.90;;;3.70;;
54599;SDS011;40500;51.084;16.958;2023-02-13T15:29:00;5.80;;;3.70;;
54599;SDS011;40500;51.084;16.958;2023-02-13T15:31:33;6.20;;;3.90;;
54599;SDS011;40500;51.084;16.958;2023-02-13T15:34:16;4.70;;;3.50;;
54599;SDS011;40500;51.084;16.958;2023-02-13T15:36:47;3.40;;;3.00;;
54599;SDS011;40500;51.084;16.958;2023-02-13T15:39:16;5.90;;;4.20;;
54599;SDS011;40500;51.084;16.958;2023-02-13T15:41:45;6.40;;;4.10;;
54599;SDS011;40500;51.084;16.958;2023-02-13T15:44:16;5.80;;;4.10;;
54599;SDS011;40500;51.084;16.958;2023-02-13T15:46:49;6.50;;;3.80;;
54599;SDS011;40500;51.084;16.958;2023-02-13T15:49:18;7.40;;;5.20;;
54599;SDS011;40500;51.084;16.958;2023-02-13T15:51:48;5.50;;;4.10;;
54599;SDS011;40500;51.084;16.958;2023-02-13T15:54:28;7.10;;;4.70;;
54599;SDS011;40500;51.084;16.958;2023-02-13T15:57:01;8.30;;;5.60;;
54599;SDS011;40500;51.084;16.958;2023-02-13T15:59:32;11.00;;;6.40;;
54599;SDS011;40500;51.084;16.958;2023-02-13T16:02:10;11.50;;;7.10;;
54599;SDS011;40500;51.084;16.958;2023-02-13T16:04:42;12.00;;;7.60;;
54599;SDS011;40500;51.084;16.958;2023-02-13T16:07:13;9.10;;;6.40;;
54599;SDS011;40500;51.084;16.958;2023-02-13T16:09:41;13.30;;;7.50;;
54599;SDS011;40500;51.084;16.958;2023-02-13T16:12:15;12.90;;;8.30;;
54599;SDS011;40500;51.084;16.958;2023-02-13T16:14:50;11.60;;;7.20;;
54599;SDS011;40500;51.084;16.958;2023-02-13T16:17:26;12.30;;;7.80;;
54599;SDS011;40500;51.084;16.958;2023-02-13T16:19:58;15.00;;;8.00;;
54599;SDS011;40500;51.084;16.958;2023-02-13T16:22:32;10.70;;;7.60;;
54599;SDS011;40500;51.084;16.958;2023-02-13T16:25:04;11.80;;;8.00;;
54599;SDS011;40500;51.084;16.958;2023-02-13T16:27:41;12.90;;;8.50;;
54599;SDS011;40500;51.084;16.958;2023-02-13T16:30:26;16.70;;;8.30;;
54599;SDS011;40500;51.084;16.958;2023-02-13T16:33:10;11.70;;;7.30;;
54599;SDS011;40500;51.084;16.958;2023-02-13T16:35:45;11.80;;;7.40;;
54599;SDS011;40500;51.084;16.958;2023-02-13T16:38:26;15.00;;;8.80;;
54599;SDS011;40500;51.084;16.958;2023-02-13T16:40:56;13.50;;;7.80;;
54599;SDS011;40500;51.084;16.958;2023-02-13T16:43:36;12.00;;;7.90;;
54599;SDS011;40500;51.084;16.958;2023-02-13T16:51:58;14.00;;;8.00;;
54599;SDS011;40500;51.084;16.958;2023-02-13T16:54:34;11.30;;;8.60;;
54599;SDS011;40500;51.084;16.958;2023-02-13T16:57:15;12.10;;;8.10;;
54599;SDS011;40500;51.084;16.958;2023-02-13T16:59:49;13.70;;;8.10;;
54599;SDS011;40500;51.084;16.958;2023-02-13T17:02:22;15.40;;;8.80;;
54599;SDS011;40500;51.084;16.958;2023-02-13T17:04:52;15.60;;;8.50;;
54599;SDS011;40500;51.084;16.958;2023-02-13T17:07:22;15.40;;;8.40;;
54599;SDS011;40500;51.084;16.958;2023-02-13T17:09:52;15.70;;;9.50;;
54599;SDS011;40500;51.084;16.958;2023-02-13T17:12:22;14.40;;;8.80;;
54599;SDS011;40500;51.084;16.958;2023-02-13T17:14:50;13.30;;;7.90;;
54599;SDS011;40500;51.084;16.958;2023-02-13T17:17:20;13.60;;;8.40;;
54599;SDS011;40500;51.084;16.958;2023-02-13T17:19:48;11.60;;;7.50;;
54599;SDS011;40500;51.084;16.958;2023-02-13T17:22:26;15.00;;;8.90;;
54599;SDS011;40500;51.084;16.958;2023-02-13T17:24:59;15.00;;;9.50;;
54599;SDS011;40500;51.084;16.958;2023-02-13T17:27:28;13.40;;;8.30;;
54599;SDS011;40500;51.084;16.958;2023-02-13T17:29:56;13.00;;;8.00;;
54599;SDS011;40500;51.084;16.958;2023-02-13T17:32:24;12.80;;;7.20;;
54599;SDS011;40500;51.084;16.958;2023-02-13T17:34:53;16.80;;;9.40;;
54599;SDS011;40500;51.084;16.958;2023-02-13T17:37:22;13.40;;;8.80;;
54599;SDS011;40500;51.084;16.958;2023-02-13T17:39:58;14.90;;;9.10;;
54599;SDS011;40500;51.084;16.958;2023-02-13T17:42:28;14.50;;;9.30;;
54599;SDS011;40500;51.084;16.958;2023-02-13T17:44:57;14.80;;;8.20;;
54599;SDS011;40500;51.084;16.958;2023-02-13T17:47:25;12.50;;;8.60;;
54599;SDS011;40500;51.084;16.958;2023-02-13T17:49:56;13.90;;;8.80;;
54599;SDS011;40500;51.084;16.958;2023-02-13T17:52:35;17.90;;;9.50;;
54599;SDS011;40500;51.084;16.958;2023-02-13T17:55:13;13.60;;;8.90;;
54599;SDS011;40500;51.084;16.958;2023-02-13T17:57:42;15.50;;;8.80;;
54599;SDS011;40500;51.084;16.958;2023-02-13T18:00:11;15.10;;;8.50;;
54599;SDS011;40500;51.084;16.958;2023-02-13T18:02:40;11.20;;;7.40;;
54599;SDS011;40500;51.084;16.958;2023-02-13T18:05:10;11.00;;;7.60;;
54599;SDS011;40500;51.084;16.958;2023-02-13T18:07:41;11.70;;;7.30;;
54599;SDS011;40500;51.084;16.958;2023-02-13T18:10:14;12.90;;;6.00;;
54599;SDS011;40500;51.084;16.958;2023-02-13T18:12:43;10.80;;;7.50;;
54599;SDS011;40500;51.084;16.958;2023-02-13T18:15:12;10.60;;;7.10;;
54599;SDS011;40500;51.084;16.958;2023-02-13T18:17:42;14.70;;;8.10;;
54599;SDS011;40500;51.084;16.958;2023-02-13T18:20:12;11.70;;;7.50;;
54599;SDS011;40500;51.084;16.958;2023-02-13T18:22:43;13.20;;;7.60;;
54599;SDS011;40500;51.084;16.958;2023-02-13T18:25:16;11.60;;;6.40;;
54599;SDS011;40500;51.084;16.958;2023-02-13T18:27:44;12.10;;;6.80;;
54599;SDS011;40500;51.084;16.958;2023-02-13T18:30:14;11.70;;;7.10;;
54599;SDS011;40500;51.084;16.958;2023-02-13T18:33:01;12.50;;;7.30;;
54599;SDS011;40500;51.084;16.958;2023-02-13T18:35:31;9.90;;;5.60;;